Rechercher aéroport 
image banner adimage banner adimage banner ad
image banner ad

KAAT - Alturas Muni

Situé à Alturas, United States

ICAO - AAT, IATA -

Données fournies par Airmate  

Information générale

Coordonnées: N41°28'58" W120°33'56"
Élévation : 4378 feet MSL.
Variation magnétique : 16° East
Voir autres Aéroports à California

Données opérationnelles

Special qualification required
Heure actuelle UTC:
Heure actuelle locale:
Météo
METAR: KAAT 260955Z AUTO 00000KT 10SM CLR 04/M02 A3007 RMK AO2 SLP149 T00441022
Voir NOTAMs / SUP AIP / TFR affectant cet aéroport [VIEW]
Fréquences de communication: [VIEW]

Pistes:

Identifiant RWYQFULongueur (ft)Largeur (ft)SurfaceLDA (ft)
0346°250660ASPH
21226°250660ASPH
13148°422850ASPH
31328°422850ASPH

Coordonnées de l'aéroport

Adresse: Alturas United States

Vue satellite de KAAT